Time;durP1;ratioP1;P1;durP2;ratioP2;P2;SDS_P1;SDS_P2;PMS_P1;PMS_P2;Temp;Humidity;BMP_temperature;BMP_pressure;BME280_temperature;BME280_humidity;BME280_pressure;Samples;Min_cycle;Max_cycle;Signal;HPM_P1;HPM_P2
2021/09/09 00:01:50;;;;;;;31.17;28.70;;;;;;;;;;5056973;28;20935;-94
2021/09/09 00:04:18;;;;;;;30.17;28.17;;;;;;;;;;5057761;28;20434;-95
2021/09/09 00:06:46;;;;;;;31.43;29.23;;;;;;;;;;5056796;28;20458;-95
2021/09/09 00:09:13;;;;;;;30.97;28.63;;;;;;;;;;5056498;28;20439;-95
2021/09/09 00:11:40;;;;;;;31.27;29.07;;;;;;;;;;5056375;28;20463;-95
2021/09/09 00:14:08;;;;;;;31.03;28.53;;;;;;;;;;5056635;28;20458;-95
2021/09/09 00:16:35;;;;;;;31.17;29.07;;;;;;;;;;5057484;28;20454;-95
2021/09/09 00:19:03;;;;;;;30.33;27.93;;;;;;;;;;5057022;28;20440;-95
2021/09/09 00:21:32;;;;;;;30.70;28.50;;;;;;;;;;5056547;28;20440;-95
2021/09/09 00:23:59;;;;;;;32.07;29.67;;;;;;;;;;5039117;28;20440;-95
2021/09/09 00:26:27;;;;;;;31.03;28.73;;;;;;;;;;5038701;28;20482;-95
2021/09/09 00:28:54;;;;;;;29.90;27.50;;;;;;;;;;5056404;28;20440;-95
2021/09/09 00:31:21;;;;;;;29.60;27.40;;;;;;;;;;5056352;28;20455;-95
2021/09/09 00:33:49;;;;;;;30.60;28.40;;;;;;;;;;5056630;28;20483;-95
2021/09/09 00:36:16;;;;;;;30.27;28.10;;;;;;;;;;5056308;28;20414;-95
2021/09/09 00:38:45;;;;;;;31.63;29.40;;;;;;;;;;5056457;28;20439;-95
2021/09/09 00:41:14;;;;;;;31.07;28.80;;;;;;;;;;5039412;28;20427;-95
2021/09/09 00:43:41;;;;;;;31.10;28.77;;;;;;;;;;5058784;28;20450;-95
2021/09/09 00:46:09;;;;;;;29.30;27.00;;;;;;;;;;5057980;28;20422;-95
2021/09/09 00:48:37;;;;;;;28.83;26.73;;;;;;;;;;5062064;28;20444;-95
2021/09/09 00:51:18;;;;;;;30.80;28.20;;;;;;;;;;5065125;28;20416;-94
2021/09/09 00:53:53;;;;;;;28.60;26.60;;;;;;;;;;5034592;28;20483;-94
2021/09/09 00:56:21;;;;;;;29.70;27.60;;;;;;;;;;5027103;28;20413;-95
2021/09/09 00:58:48;;;;;;;30.60;28.23;;;;;;;;;;5016360;28;20420;-95
2021/09/09 01:01:16;;;;;;;29.77;27.67;;;;;;;;;;5018026;28;20441;-95
2021/09/09 01:03:43;;;;;;;30.47;28.17;;;;;;;;;;5016030;28;20420;-95
2021/09/09 01:06:10;;;;;;;30.77;28.57;;;;;;;;;;4999539;28;20447;-95
2021/09/09 01:08:38;;;;;;;30.50;28.30;;;;;;;;;;5019192;28;20429;-95
2021/09/09 01:11:07;;;;;;;29.57;27.37;;;;;;;;;;5015781;28;20422;-95
2021/09/09 01:13:34;;;;;;;30.90;28.37;;;;;;;;;;5016945;28;20497;-95
2021/09/09 01:16:03;;;;;;;30.47;28.10;;;;;;;;;;5015702;28;20438;-95
2021/09/09 01:18:31;;;;;;;29.53;27.23;;;;;;;;;;5018140;28;20428;-95
2021/09/09 01:20:58;;;;;;;31.23;28.33;;;;;;;;;;5015866;28;20441;-95
2021/09/09 01:23:26;;;;;;;29.67;27.60;;;;;;;;;;5017454;28;20450;-95
2021/09/09 01:25:55;;;;;;;29.83;27.70;;;;;;;;;;5015985;28;20434;-95
2021/09/09 01:28:23;;;;;;;29.53;27.40;;;;;;;;;;5017524;28;20441;-95
2021/09/09 01:30:50;;;;;;;29.73;27.63;;;;;;;;;;5016935;28;20426;-95
2021/09/09 01:33:18;;;;;;;29.23;27.13;;;;;;;;;;4998359;28;20948;-95
2021/09/09 01:35:45;;;;;;;30.10;28.00;;;;;;;;;;5017644;28;20429;-95
2021/09/09 01:38:22;;;;;;;29.47;27.47;;;;;;;;;;4997494;28;20498;-95
2021/09/09 01:40:50;;;;;;;30.27;28.07;;;;;;;;;;4999184;28;20448;-95
2021/09/09 01:43:19;;;;;;;29.23;27.23;;;;;;;;;;5018508;28;20417;-95
2021/09/09 01:45:47;;;;;;;29.90;27.57;;;;;;;;;;5034992;28;20438;-95
2021/09/09 01:48:14;;;;;;;29.90;27.70;;;;;;;;;;5035013;28;20440;-95
2021/09/09 01:50:42;;;;;;;28.60;26.63;;;;;;;;;;5037176;28;20441;-95
2021/09/09 01:53:09;;;;;;;29.03;27.07;;;;;;;;;;5034829;28;20503;-95
2021/09/09 01:55:36;;;;;;;30.30;28.00;;;;;;;;;;5036706;28;20775;-95
2021/09/09 01:58:04;;;;;;;30.90;28.80;;;;;;;;;;5034766;28;20446;-95
2021/09/09 02:00:33;;;;;;;29.90;27.30;;;;;;;;;;5019156;28;20445;-95
2021/09/09 02:03:00;;;;;;;28.90;26.90;;;;;;;;;;5034985;28;20445;-95
2021/09/09 02:05:28;;;;;;;30.17;27.80;;;;;;;;;;5036182;28;20972;-96
2021/09/09 02:07:55;;;;;;;29.53;27.40;;;;;;;;;;5034840;28;20881;-95
2021/09/09 02:10:23;;;;;;;30.33;27.83;;;;;;;;;;5036756;28;20421;-95
2021/09/09 02:12:50;;;;;;;31.40;28.73;;;;;;;;;;5042108;28;20461;-95
2021/09/09 02:15:18;;;;;;;28.63;26.53;;;;;;;;;;5036708;28;20457;-95
2021/09/09 02:17:47;;;;;;;30.43;28.23;;;;;;;;;;5036424;28;20438;-95
2021/09/09 02:20:15;;;;;;;28.97;26.83;;;;;;;;;;5036617;28;20426;-95
2021/09/09 02:22:42;;;;;;;29.53;26.93;;;;;;;;;;5034775;28;20449;-95
2021/09/09 02:25:10;;;;;;;28.07;26.27;;;;;;;;;;5035199;28;20419;-95
2021/09/09 02:27:38;;;;;;;30.10;28.00;;;;;;;;;;5037082;28;20487;-95
2021/09/09 02:30:06;;;;;;;28.77;26.80;;;;;;;;;;5034362;28;20432;-95
2021/09/09 02:32:33;;;;;;;29.30;27.20;;;;;;;;;;5035302;28;20502;-95
2021/09/09 02:35:02;;;;;;;28.67;26.70;;;;;;;;;;5017909;28;20442;-95
2021/09/09 02:37:29;;;;;;;28.90;26.80;;;;;;;;;;5017328;28;20452;-95
2021/09/09 02:39:57;;;;;;;29.53;27.53;;;;;;;;;;5034621;28;20441;-95
2021/09/09 02:42:24;;;;;;;29.10;27.00;;;;;;;;;;5034595;28;20408;-95
2021/09/09 02:44:52;;;;;;;29.07;26.60;;;;;;;;;;5016833;28;20852;-95
2021/09/09 02:47:19;;;;;;;28.93;27.00;;;;;;;;;;5034482;28;20415;-95
2021/09/09 02:49:46;;;;;;;30.20;28.10;;;;;;;;;;5034799;28;20761;-95
2021/09/09 02:52:15;;;;;;;29.40;27.50;;;;;;;;;;5037110;28;20455;-94
2021/09/09 02:54:43;;;;;;;29.03;27.10;;;;;;;;;;5041110;28;20420;-95
2021/09/09 02:57:10;;;;;;;28.00;26.30;;;;;;;;;;5039348;28;20420;-95
2021/09/09 02:59:37;;;;;;;27.20;25.33;;;;;;;;;;5038478;28;20844;-94
2021/09/09 03:02:05;;;;;;;28.70;26.70;;;;;;;;;;5039416;28;20440;-95
2021/09/09 03:04:32;;;;;;;28.87;26.73;;;;;;;;;;5023467;28;20476;-95
2021/09/09 03:07:00;;;;;;;28.37;26.47;;;;;;;;;;5027549;28;20481;-95
2021/09/09 03:09:29;;;;;;;29.83;27.63;;;;;;;;;;5020694;28;20456;-95
2021/09/09 03:11:56;;;;;;;28.40;26.50;;;;;;;;;;5037673;28;20460;-95
2021/09/09 03:14:24;;;;;;;28.43;26.20;;;;;;;;;;5037284;28;20489;-95
2021/09/09 03:16:51;;;;;;;29.40;27.40;;;;;;;;;;5038929;28;20421;-95
2021/09/09 03:19:18;;;;;;;27.27;25.47;;;;;;;;;;5039978;28;20438;-95
2021/09/09 03:21:46;;;;;;;26.70;25.00;;;;;;;;;;5040264;28;20448;-95
2021/09/09 03:24:15;;;;;;;29.37;27.03;;;;;;;;;;5039982;28;20476;-95
2021/09/09 03:26:43;;;;;;;29.10;26.80;;;;;;;;;;5039140;28;20420;-95
2021/09/09 03:29:11;;;;;;;29.57;27.50;;;;;;;;;;5022430;28;20418;-95
2021/09/09 03:31:38;;;;;;;28.83;26.83;;;;;;;;;;5039637;28;20465;-95
2021/09/09 03:34:06;;;;;;;27.63;25.73;;;;;;;;;;5040449;28;20446;-95
2021/09/09 03:36:33;;;;;;;28.53;26.33;;;;;;;;;;5024065;28;20453;-95
2021/09/09 03:39:00;;;;;;;27.60;25.30;;;;;;;;;;5046848;28;20495;-95
2021/09/09 03:41:28;;;;;;;27.70;25.67;;;;;;;;;;5041595;28;20418;-95
2021/09/09 03:43:57;;;;;;;27.07;25.07;;;;;;;;;;5038768;28;20447;-95
2021/09/09 03:46:24;;;;;;;27.57;25.67;;;;;;;;;;5038059;28;20417;-95
2021/09/09 03:48:51;;;;;;;28.40;26.30;;;;;;;;;;5037381;28;20920;-95
2021/09/09 03:51:19;;;;;;;27.93;25.97;;;;;;;;;;5037467;28;20444;-95
2021/09/09 03:53:46;;;;;;;27.27;25.50;;;;;;;;;;5036806;28;20508;-95
2021/09/09 03:56:14;;;;;;;29.40;27.20;;;;;;;;;;5036871;28;20488;-95
2021/09/09 03:58:41;;;;;;;27.87;25.87;;;;;;;;;;5019794;28;20410;-95
2021/09/09 04:01:10;;;;;;;28.43;26.33;;;;;;;;;;5036945;28;20450;-95
2021/09/09 04:03:38;;;;;;;27.57;25.50;;;;;;;;;;5003604;28;20840;-95
2021/09/09 04:06:05;;;;;;;29.00;26.90;;;;;;;;;;5021169;28;20448;-95
2021/09/09 04:08:33;;;;;;;28.13;26.13;;;;;;;;;;5036756;28;20425;-95
2021/09/09 04:11:00;;;;;;;27.27;25.33;;;;;;;;;;5036791;28;20441;-95
2021/09/09 04:13:27;;;;;;;27.07;25.07;;;;;;;;;;5038651;28;20511;-95
2021/09/09 04:15:55;;;;;;;27.20;25.30;;;;;;;;;;5036798;28;20438;-96
2021/09/09 04:18:24;;;;;;;27.60;25.73;;;;;;;;;;5036205;28;20955;-95
2021/09/09 04:20:51;;;;;;;29.80;27.60;;;;;;;;;;5028743;28;20469;-96
2021/09/09 04:23:18;;;;;;;29.00;27.00;;;;;;;;;;5036779;28;20460;-95
2021/09/09 04:25:46;;;;;;;27.40;25.60;;;;;;;;;;5036551;28;20934;-95
2021/09/09 04:28:13;;;;;;;29.90;27.63;;;;;;;;;;5036183;28;20915;-96
2021/09/09 04:30:41;;;;;;;27.83;25.90;;;;;;;;;;5036657;28;20764;-95
2021/09/09 04:33:08;;;;;;;26.97;25.13;;;;;;;;;;5036527;28;20465;-95
2021/09/09 04:35:37;;;;;;;28.17;25.97;;;;;;;;;;5036415;28;20631;-95
2021/09/09 04:38:04;;;;;;;27.60;25.77;;;;;;;;;;5036873;28;20489;-95
2021/09/09 04:40:32;;;;;;;29.07;26.60;;;;;;;;;;5035925;28;20469;-95
2021/09/09 04:42:59;;;;;;;28.50;26.43;;;;;;;;;;5036456;28;20444;-95
2021/09/09 04:45:27;;;;;;;28.67;26.67;;;;;;;;;;5036838;28;20457;-95
2021/09/09 04:47:54;;;;;;;27.50;25.73;;;;;;;;;;5036402;28;20437;-95
2021/09/09 04:50:21;;;;;;;29.07;27.00;;;;;;;;;;5036388;28;20430;-94
2021/09/09 04:52:50;;;;;;;27.90;26.00;;;;;;;;;;5043395;28;20565;-95
2021/09/09 04:55:18;;;;;;;28.40;26.40;;;;;;;;;;5050527;28;20430;-95
2021/09/09 04:57:45;;;;;;;28.20;25.90;;;;;;;;;;5039954;28;20452;-95
2021/09/09 05:00:13;;;;;;;28.50;26.50;;;;;;;;;;5036603;28;20446;-95
2021/09/09 05:02:40;;;;;;;29.27;27.07;;;;;;;;;;5037105;28;20450;-95
2021/09/09 05:05:08;;;;;;;28.40;26.43;;;;;;;;;;5037253;28;20460;-94
2021/09/09 05:07:36;;;;;;;29.60;27.47;;;;;;;;;;5038065;28;20780;-94
2021/09/09 05:10:05;;;;;;;28.00;25.80;;;;;;;;;;5041110;28;20438;-93
2021/09/09 05:12:32;;;;;;;28.13;26.13;;;;;;;;;;5038637;28;20427;-86
2021/09/09 05:15:00;;;;;;;28.03;26.03;;;;;;;;;;5039807;28;20489;-86
2021/09/09 05:17:27;;;;;;;28.23;26.23;;;;;;;;;;5038132;28;20448;-86
2021/09/09 05:19:55;;;;;;;28.77;26.77;;;;;;;;;;5036979;28;20435;-93
2021/09/09 05:22:22;;;;;;;28.03;25.97;;;;;;;;;;5037245;28;20421;-93
2021/09/09 05:24:49;;;;;;;27.87;25.80;;;;;;;;;;5037744;28;20518;-86
2021/09/09 05:27:18;;;;;;;26.07;24.27;;;;;;;;;;5037675;28;20456;-85
2021/09/09 05:29:45;;;;;;;27.37;25.47;;;;;;;;;;5045376;28;20421;-86
2021/09/09 05:32:13;;;;;;;27.40;25.20;;;;;;;;;;5052203;28;20428;-86
2021/09/09 05:34:40;;;;;;;28.63;26.43;;;;;;;;;;5038826;28;20482;-86
2021/09/09 05:37:21;;;;;;;28.50;25.83;;;;;;;;;;5037606;28;20449;-85
2021/09/09 05:39:48;;;;;;;27.17;25.03;;;;;;;;;;5036401;28;20445;-86
2021/09/09 05:42:15;;;;;;;29.97;27.27;;;;;;;;;;5035585;28;20449;-86
2021/09/09 05:44:44;;;;;;;29.20;26.80;;;;;;;;;;5035248;28;20469;-86
2021/09/09 05:47:11;;;;;;;28.70;26.67;;;;;;;;;;5035560;28;20449;-86
2021/09/09 05:49:39;;;;;;;28.27;26.20;;;;;;;;;;5035476;28;20488;-86
2021/09/09 05:52:07;;;;;;;27.50;25.70;;;;;;;;;;5035616;28;20488;-86
2021/09/09 05:54:34;;;;;;;27.80;25.80;;;;;;;;;;5017432;28;20502;-86
2021/09/09 05:57:02;;;;;;;27.00;25.00;;;;;;;;;;5035153;28;20936;-86
2021/09/09 05:59:30;;;;;;;27.07;25.17;;;;;;;;;;5035920;28;20437;-86
2021/09/09 06:01:59;;;;;;;28.87;26.40;;;;;;;;;;5037122;28;20568;-87
2021/09/09 06:04:34;;;;;;;28.93;26.93;;;;;;;;;;5042678;28;20428;-87
2021/09/09 06:07:02;;;;;;;28.77;26.83;;;;;;;;;;5043408;28;20443;-87
2021/09/09 06:09:29;;;;;;;29.67;27.50;;;;;;;;;;5038080;28;20450;-87
2021/09/09 06:11:56;;;;;;;29.40;27.43;;;;;;;;;;5046623;28;20446;-87
2021/09/09 06:14:24;;;;;;;28.73;26.70;;;;;;;;;;5039405;28;20892;-85
2021/09/09 06:16:53;;;;;;;28.50;26.50;;;;;;;;;;5038376;28;20446;-86
2021/09/09 06:19:22;;;;;;;27.20;25.17;;;;;;;;;;5035589;28;20448;-84
2021/09/09 06:21:50;;;;;;;27.40;25.53;;;;;;;;;;5035243;28;20791;-83
2021/09/09 06:24:18;;;;;;;26.13;24.30;;;;;;;;;;5035018;28;20458;-87
2021/09/09 06:26:45;;;;;;;25.13;23.53;;;;;;;;;;5034676;28;20453;-85
2021/09/09 06:29:13;;;;;;;26.10;24.13;;;;;;;;;;5035289;28;20452;-90
2021/09/09 06:31:42;;;;;;;26.50;24.77;;;;;;;;;;5035984;28;20435;-87
2021/09/09 06:34:10;;;;;;;25.57;23.53;;;;;;;;;;5034611;28;20484;-88
2021/09/09 06:36:39;;;;;;;26.37;24.57;;;;;;;;;;5036450;28;20465;-88
2021/09/09 06:39:07;;;;;;;28.33;26.20;;;;;;;;;;5035183;28;20446;-87
2021/09/09 06:41:35;;;;;;;26.13;24.23;;;;;;;;;;5036098;28;20446;-87
2021/09/09 06:44:02;;;;;;;26.60;24.80;;;;;;;;;;5035026;28;20468;-90
2021/09/09 06:46:30;;;;;;;26.90;25.10;;;;;;;;;;5036536;28;20915;-87
2021/09/09 06:48:57;;;;;;;26.33;24.43;;;;;;;;;;5036394;28;20435;-88
2021/09/09 06:51:26;;;;;;;26.00;24.30;;;;;;;;;;5036958;28;20431;-88
2021/09/09 06:53:58;;;;;;;27.10;25.20;;;;;;;;;;5035988;28;20857;-88
2021/09/09 06:56:27;;;;;;;26.73;24.90;;;;;;;;;;5037984;28;20459;-88
2021/09/09 06:58:54;;;;;;;26.97;25.17;;;;;;;;;;5036678;28;20890;-88
2021/09/09 07:01:22;;;;;;;25.70;24.00;;;;;;;;;;5036623;28;20414;-89
2021/09/09 07:03:52;;;;;;;25.50;23.80;;;;;;;;;;5036959;28;20436;-87
2021/09/09 07:06:19;;;;;;;25.70;23.97;;;;;;;;;;5020416;28;20456;-88
2021/09/09 07:08:47;;;;;;;25.70;24.00;;;;;;;;;;5036756;28;20401;-87
2021/09/09 07:11:16;;;;;;;26.73;25.03;;;;;;;;;;5003444;28;20422;-90
2021/09/09 07:13:43;;;;;;;25.80;24.10;;;;;;;;;;5036669;28;20410;-89
2021/09/09 07:16:11;;;;;;;27.10;25.30;;;;;;;;;;5036549;28;20404;-89
2021/09/09 07:18:38;;;;;;;25.60;23.70;;;;;;;;;;5036080;28;20422;-89
2021/09/09 07:21:07;;;;;;;26.30;24.40;;;;;;;;;;5036642;28;20431;-89
2021/09/09 07:23:35;;;;;;;27.10;25.20;;;;;;;;;;5035345;28;20910;-89
2021/09/09 07:26:02;;;;;;;27.43;25.43;;;;;;;;;;5037794;28;20428;-89
2021/09/09 07:28:31;;;;;;;26.80;24.97;;;;;;;;;;5035874;28;20412;-89
2021/09/09 07:30:59;;;;;;;26.30;24.60;;;;;;;;;;5036444;28;20415;-90
2021/09/09 07:33:26;;;;;;;27.10;25.30;;;;;;;;;;5035989;28;20438;-90
2021/09/09 07:35:56;;;;;;;26.97;25.07;;;;;;;;;;5017532;28;20552;-90
2021/09/09 07:38:23;;;;;;;26.77;24.67;;;;;;;;;;5037915;28;20446;-89
2021/09/09 07:40:51;;;;;;;26.97;25.00;;;;;;;;;;5038544;28;20413;-90
2021/09/09 07:43:18;;;;;;;26.70;25.00;;;;;;;;;;5038292;28;20470;-88
2021/09/09 07:45:47;;;;;;;27.17;25.37;;;;;;;;;;5038047;28;20454;-88
2021/09/09 07:48:14;;;;;;;26.80;24.80;;;;;;;;;;5038746;28;20446;-88
2021/09/09 07:50:44;;;;;;;27.20;25.03;;;;;;;;;;5038050;28;20439;-88
2021/09/09 07:53:11;;;;;;;26.43;24.43;;;;;;;;;;5037554;28;20887;-88
2021/09/09 07:55:39;;;;;;;26.90;24.90;;;;;;;;;;5020941;28;20552;-88
2021/09/09 07:58:06;;;;;;;27.23;25.30;;;;;;;;;;5021641;28;20954;-88
2021/09/09 08:00:34;;;;;;;26.47;24.37;;;;;;;;;;5041951;28;20447;-89
2021/09/09 08:03:02;;;;;;;26.07;24.30;;;;;;;;;;5039001;28;20461;-88
2021/09/09 08:05:30;;;;;;;25.80;24.10;;;;;;;;;;5038400;28;20403;-88
2021/09/09 08:07:58;;;;;;;27.00;25.00;;;;;;;;;;5038684;28;20454;-88
2021/09/09 08:10:25;;;;;;;25.83;24.13;;;;;;;;;;5039198;28;20846;-88
2021/09/09 08:12:52;;;;;;;26.33;24.63;;;;;;;;;;5038068;28;20459;-88
2021/09/09 08:15:20;;;;;;;26.70;24.90;;;;;;;;;;5037395;28;20486;-88
2021/09/09 08:17:48;;;;;;;26.67;24.73;;;;;;;;;;5020465;28;20788;-88
2021/09/09 08:20:17;;;;;;;25.50;23.70;;;;;;;;;;5037358;28;20435;-87
2021/09/09 08:22:44;;;;;;;28.07;26.23;;;;;;;;;;5036831;28;20450;-88
2021/09/09 08:25:12;;;;;;;26.57;24.87;;;;;;;;;;5037516;28;20425;-88
2021/09/09 08:27:40;;;;;;;28.33;26.33;;;;;;;;;;5036942;28;20409;-88
2021/09/09 08:30:08;;;;;;;26.60;24.70;;;;;;;;;;5036462;28;20413;-88
2021/09/09 08:32:35;;;;;;;26.40;24.47;;;;;;;;;;5036161;28;20430;-88
2021/09/09 08:35:03;;;;;;;27.43;25.63;;;;;;;;;;5036302;28;20501;-89
2021/09/09 08:37:33;;;;;;;27.23;25.43;;;;;;;;;;5036522;28;20413;-87
2021/09/09 08:40:00;;;;;;;26.03;24.33;;;;;;;;;;5036229;28;20421;-89
2021/09/09 08:42:27;;;;;;;26.80;25.00;;;;;;;;;;5036662;28;20446;-88
2021/09/09 08:44:55;;;;;;;27.57;25.57;;;;;;;;;;5035926;28;20454;-88
2021/09/09 08:47:24;;;;;;;26.73;25.03;;;;;;;;;;5036136;28;20425;-88
2021/09/09 08:49:52;;;;;;;27.67;25.67;;;;;;;;;;5037124;28;20818;-88
2021/09/09 08:52:19;;;;;;;28.63;26.63;;;;;;;;;;5035959;28;20475;-90
2021/09/09 08:54:48;;;;;;;27.60;25.47;;;;;;;;;;5038864;28;20483;-96
2021/09/09 08:57:21;;;;;;;26.07;24.27;;;;;;;;;;5043915;28;20426;-88
2021/09/09 08:59:48;;;;;;;28.07;26.17;;;;;;;;;;5038782;28;20484;-88
2021/09/09 09:02:17;;;;;;;29.80;27.13;;;;;;;;;;5037598;28;20437;-88
2021/09/09 09:05:00;;;;;;;27.57;25.37;;;;;;;;;;5040018;28;20445;-89
2021/09/09 09:07:34;;;;;;;28.23;26.43;;;;;;;;;;5036398;28;20410;-88
2021/09/09 09:10:05;;;;;;;27.50;25.60;;;;;;;;;;5035495;28;20925;-89
2021/09/09 09:12:39;;;;;;;26.90;25.30;;;;;;;;;;5035551;28;20438;-88
2021/09/09 09:15:11;;;;;;;27.10;25.20;;;;;;;;;;5018492;28;20468;-89
2021/09/09 09:17:53;;;;;;;28.03;26.20;;;;;;;;;;5035477;28;20455;-89
2021/09/09 09:20:20;;;;;;;27.57;25.70;;;;;;;;;;5035526;28;20418;-89
2021/09/09 09:22:47;;;;;;;28.07;25.87;;;;;;;;;;5035137;28;20477;-88
2021/09/09 09:25:16;;;;;;;29.03;26.83;;;;;;;;;;5035733;28;20436;-89
2021/09/09 09:27:47;;;;;;;29.03;27.13;;;;;;;;;;5035489;28;20443;-89
2021/09/09 09:30:15;;;;;;;27.83;25.80;;;;;;;;;;5035279;28;20497;-89
2021/09/09 09:32:46;;;;;;;28.53;26.60;;;;;;;;;;5034913;28;20438;-89
2021/09/09 09:35:15;;;;;;;28.93;26.50;;;;;;;;;;5035314;28;20474;-89
2021/09/09 09:37:53;;;;;;;26.83;25.03;;;;;;;;;;5035348;28;20481;-88
2021/09/09 09:40:26;;;;;;;27.50;25.60;;;;;;;;;;5035447;28;20451;-88
2021/09/09 09:42:55;;;;;;;26.90;25.20;;;;;;;;;;5017248;28;20459;-89
2021/09/09 09:45:22;;;;;;;28.33;26.50;;;;;;;;;;5035373;28;20946;-89
2021/09/09 09:47:50;;;;;;;28.77;26.57;;;;;;;;;;5034995;28;20862;-89
2021/09/09 09:50:18;;;;;;;26.73;24.93;;;;;;;;;;5034573;28;20429;-88
2021/09/09 09:52:46;;;;;;;28.97;26.97;;;;;;;;;;5034565;28;20991;-89
2021/09/09 09:55:14;;;;;;;27.13;25.33;;;;;;;;;;5035020;28;20461;-89
2021/09/09 09:57:55;;;;;;;28.23;26.33;;;;;;;;;;5035091;28;20469;-88
2021/09/09 10:00:23;;;;;;;27.80;26.00;;;;;;;;;;5034920;28;20504;-89
2021/09/09 10:02:51;;;;;;;27.30;25.40;;;;;;;;;;5034747;28;20417;-88
2021/09/09 10:05:19;;;;;;;28.00;26.00;;;;;;;;;;5034563;28;20438;-89
2021/09/09 10:07:46;;;;;;;26.90;25.20;;;;;;;;;;5017397;28;20414;-90
2021/09/09 10:10:14;;;;;;;28.07;26.07;;;;;;;;;;5034729;28;20420;-89
2021/09/09 10:12:43;;;;;;;28.73;26.87;;;;;;;;;;5034536;28;20787;-90
2021/09/09 10:15:13;;;;;;;26.30;24.70;;;;;;;;;;5034104;28;20517;-89
2021/09/09 10:17:41;;;;;;;27.57;25.77;;;;;;;;;;5034363;28;20472;-89
2021/09/09 10:20:27;;;;;;;27.67;25.87;;;;;;;;;;5034411;28;20811;-89
2021/09/09 10:23:01;;;;;;;29.47;26.97;;;;;;;;;;5035083;28;20422;-89
2021/09/09 10:25:41;;;;;;;25.93;24.23;;;;;;;;;;5034324;28;20987;-89
2021/09/09 10:28:23;;;;;;;27.57;25.77;;;;;;;;;;5034617;28;20418;-89
2021/09/09 10:31:05;;;;;;;29.00;26.50;;;;;;;;;;5033536;28;20425;-89
2021/09/09 10:33:37;;;;;;;28.53;26.47;;;;;;;;;;5012280;28;20438;-89
2021/09/09 10:36:05;;;;;;;27.23;25.50;;;;;;;;;;5034338;28;20490;-89
2021/09/09 10:38:35;;;;;;;26.67;24.97;;;;;;;;;;5034175;28;20402;-89
2021/09/09 10:41:05;;;;;;;28.03;26.23;;;;;;;;;;5034365;28;20438;-89
2021/09/09 10:43:47;;;;;;;28.53;26.23;;;;;;;;;;5034167;28;20502;-90
2021/09/09 10:46:16;;;;;;;26.57;24.97;;;;;;;;;;5034453;28;20439;-89
2021/09/09 10:48:46;;;;;;;26.37;24.57;;;;;;;;;;5034039;28;20422;-89
2021/09/09 10:51:17;;;;;;;28.53;26.20;;;;;;;;;;5034028;28;20447;-89
2021/09/09 10:53:46;;;;;;;28.07;26.07;;;;;;;;;;5016843;28;20487;-89
2021/09/09 10:56:14;;;;;;;27.20;25.30;;;;;;;;;;5017596;28;20465;-89
2021/09/09 10:58:41;;;;;;;25.90;24.30;;;;;;;;;;5035613;28;20450;-89
2021/09/09 11:01:09;;;;;;;26.80;24.70;;;;;;;;;;5035357;28;20450;-89
2021/09/09 11:03:40;;;;;;;25.57;23.97;;;;;;;;;;5036050;28;20463;-89
2021/09/09 11:06:10;;;;;;;26.73;25.03;;;;;;;;;;5036101;28;20444;-90
2021/09/09 11:08:38;;;;;;;26.27;24.47;;;;;;;;;;5038121;28;20439;-89
2021/09/09 11:11:06;;;;;;;27.33;25.23;;;;;;;;;;5040374;28;20432;-89
2021/09/09 11:13:36;;;;;;;26.43;24.63;;;;;;;;;;5048912;28;20432;-89
2021/09/09 11:16:03;;;;;;;26.70;24.70;;;;;;;;;;5050001;28;20553;-89
2021/09/09 11:18:32;;;;;;;26.50;24.80;;;;;;;;;;5048481;28;20439;-90
2021/09/09 11:21:03;;;;;;;27.10;25.40;;;;;;;;;;5049917;28;20439;-90
2021/09/09 11:23:32;;;;;;;27.30;25.50;;;;;;;;;;5039830;28;20449;-89
2021/09/09 11:26:09;;;;;;;28.23;26.27;;;;;;;;;;5038077;28;20451;-90
2021/09/09 11:28:37;;;;;;;27.70;25.80;;;;;;;;;;5038612;28;20442;-90
2021/09/09 11:31:16;;;;;;;26.60;24.90;;;;;;;;;;5037489;28;20418;-90
2021/09/09 11:33:53;;;;;;;27.87;26.07;;;;;;;;;;5021374;28;20415;-90
2021/09/09 11:36:21;;;;;;;28.80;26.80;;;;;;;;;;5037839;28;20779;-92
2021/09/09 11:38:51;;;;;;;27.13;25.13;;;;;;;;;;5038092;28;20414;-91
2021/09/09 11:41:19;;;;;;;27.60;25.70;;;;;;;;;;5038389;28;20419;-89
2021/09/09 11:43:51;;;;;;;27.50;25.70;;;;;;;;;;5043366;28;20434;-89
2021/09/09 11:46:25;;;;;;;27.17;25.30;;;;;;;;;;5040065;28;20447;-89
2021/09/09 11:48:57;;;;;;;27.17;25.40;;;;;;;;;;5046979;28;20443;-89
2021/09/09 11:51:31;;;;;;;27.30;25.30;;;;;;;;;;5041923;28;20784;-89
2021/09/09 11:54:00;;;;;;;26.40;24.50;;;;;;;;;;5037961;28;20535;-89
2021/09/09 11:56:28;;;;;;;26.50;24.73;;;;;;;;;;5038215;28;20493;-88
2021/09/09 11:58:58;;;;;;;25.73;23.97;;;;;;;;;;5037821;28;20790;-88
2021/09/09 12:01:25;;;;;;;25.97;24.27;;;;;;;;;;5037523;28;20486;-88
2021/09/09 12:03:53;;;;;;;26.70;24.83;;;;;;;;;;5038598;28;20902;-88
2021/09/09 12:06:22;;;;;;;27.27;25.60;;;;;;;;;;5038436;28;20435;-88
2021/09/09 12:08:50;;;;;;;27.37;25.47;;;;;;;;;;5039697;28;20432;-87
2021/09/09 12:11:18;;;;;;;27.30;25.50;;;;;;;;;;5039244;28;20432;-88
2021/09/09 12:13:46;;;;;;;26.63;24.93;;;;;;;;;;5022188;28;20843;-87
2021/09/09 12:16:15;;;;;;;26.80;24.73;;;;;;;;;;5039992;28;20487;-87
2021/09/09 12:18:44;;;;;;;27.30;25.50;;;;;;;;;;5040853;28;20416;-88
2021/09/09 12:21:13;;;;;;;26.70;24.80;;;;;;;;;;5040157;28;20876;-88
2021/09/09 12:23:56;;;;;;;27.33;25.50;;;;;;;;;;5041667;28;20444;-88
2021/09/09 12:26:25;;;;;;;26.20;24.40;;;;;;;;;;5022012;28;20471;-88
2021/09/09 12:28:53;;;;;;;27.83;26.03;;;;;;;;;;5039393;28;20442;-88
2021/09/09 12:31:35;;;;;;;28.27;26.20;;;;;;;;;;5037938;28;20432;-88
2021/09/09 12:34:08;;;;;;;27.10;25.37;;;;;;;;;;5038137;28;20426;-87
2021/09/09 12:36:40;;;;;;;28.97;27.07;;;;;;;;;;5048584;28;20458;-88
2021/09/09 12:39:08;;;;;;;28.43;26.43;;;;;;;;;;5042418;28;20918;-84
2021/09/09 12:41:37;;;;;;;27.93;26.03;;;;;;;;;;5036746;28;20426;-86
2021/09/09 12:44:12;;;;;;;26.73;24.83;;;;;;;;;;5038311;28;20509;-94
2021/09/09 12:46:42;;;;;;;27.33;25.33;;;;;;;;;;5024977;28;20450;-86
2021/09/09 12:49:11;;;;;;;26.60;24.80;;;;;;;;;;5042660;28;20432;-88
2021/09/09 12:51:40;;;;;;;27.33;25.53;;;;;;;;;;5009747;28;20450;-88
2021/09/09 12:54:07;;;;;;;26.87;25.10;;;;;;;;;;5040281;28;20495;-88
2021/09/09 12:56:37;;;;;;;27.37;25.47;;;;;;;;;;5043126;28;20486;-87
2021/09/09 12:59:05;;;;;;;27.70;25.93;;;;;;;;;;5049081;28;20426;-88
2021/09/09 13:01:33;;;;;;;28.20;26.00;;;;;;;;;;5035523;28;20439;-87
2021/09/09 13:04:00;;;;;;;28.07;26.07;;;;;;;;;;5039423;28;20459;-88
2021/09/09 13:06:28;;;;;;;28.10;26.00;;;;;;;;;;5020062;28;20443;-88
2021/09/09 13:08:55;;;;;;;27.97;26.17;;;;;;;;;;5018348;28;20500;-88
2021/09/09 13:11:22;;;;;;;26.50;24.70;;;;;;;;;;5035610;28;20511;-87
2021/09/09 13:13:51;;;;;;;27.43;25.53;;;;;;;;;;5036001;28;20460;-87
2021/09/09 13:16:19;;;;;;;27.33;25.30;;;;;;;;;;5035423;28;20489;-86
2021/09/09 13:18:46;;;;;;;28.03;26.07;;;;;;;;;;5035767;28;20442;-89
2021/09/09 13:21:17;;;;;;;27.90;26.10;;;;;;;;;;5035467;28;20529;-89
2021/09/09 13:23:45;;;;;;;28.90;26.43;;;;;;;;;;5035385;28;20455;-88
2021/09/09 13:26:13;;;;;;;25.83;24.23;;;;;;;;;;5002023;28;20445;-89
2021/09/09 13:28:40;;;;;;;26.53;24.67;;;;;;;;;;5035277;28;20440;-88
2021/09/09 13:31:10;;;;;;;26.63;24.80;;;;;;;;;;5035499;28;20432;-89
2021/09/09 13:33:37;;;;;;;27.97;25.83;;;;;;;;;;5035418;28;20420;-88
2021/09/09 13:36:05;;;;;;;26.37;24.67;;;;;;;;;;5034120;28;20475;-89
2021/09/09 13:38:32;;;;;;;28.00;25.83;;;;;;;;;;5035264;28;20439;-87
2021/09/09 13:41:00;;;;;;;27.93;25.93;;;;;;;;;;5035266;28;20790;-88
2021/09/09 13:43:27;;;;;;;25.33;23.77;;;;;;;;;;5034596;28;20538;-86
2021/09/09 13:45:55;;;;;;;28.37;26.47;;;;;;;;;;5035057;28;20452;-87
2021/09/09 13:48:24;;;;;;;27.90;25.70;;;;;;;;;;5035087;28;20915;-87
2021/09/09 13:50:51;;;;;;;26.77;25.07;;;;;;;;;;5042279;28;20433;-94
2021/09/09 13:56:09;;;;;;;26.73;24.83;;;;;;;;;;5706761;22;20563;-86
2021/09/09 13:58:36;;;;;;;26.10;24.00;;;;;;;;;;5035273;28;20447;-87
2021/09/09 14:01:04;;;;;;;26.67;24.73;;;;;;;;;;5034697;28;20440;-88
2021/09/09 14:03:32;;;;;;;26.43;24.73;;;;;;;;;;5034549;28;20445;-87
2021/09/09 14:06:00;;;;;;;27.07;25.00;;;;;;;;;;5034962;28;20438;-88
2021/09/09 14:08:27;;;;;;;26.60;24.50;;;;;;;;;;5034889;28;20433;-87
2021/09/09 14:10:55;;;;;;;26.23;24.53;;;;;;;;;;5017542;28;20449;-87
2021/09/09 14:13:22;;;;;;;27.70;25.90;;;;;;;;;;5034636;28;20813;-87
2021/09/09 14:15:50;;;;;;;26.90;25.30;;;;;;;;;;5034422;28;20924;-87
2021/09/09 14:18:17;;;;;;;28.07;26.07;;;;;;;;;;5034613;28;20435;-87
2021/09/09 14:20:49;;;;;;;27.97;25.83;;;;;;;;;;5034250;28;20470;-87
2021/09/09 14:23:16;;;;;;;28.33;26.53;;;;;;;;;;5034552;28;20444;-87
2021/09/09 14:25:44;;;;;;;27.57;25.87;;;;;;;;;;5034484;28;20802;-87
2021/09/09 14:28:11;;;;;;;27.70;25.70;;;;;;;;;;5034999;28;20452;-87